Time;durP1;ratioP1;P1;durP2;ratioP2;P2;SDS_P1;SDS_P2;PMS_P1;PMS_P2;Temp;Humidity;BMP_temperature;BMP_pressure;BME280_temperature;BME280_humidity;BME280_pressure;Samples;Min_cycle;Max_cycle;Signal;HPM_P1;HPM_P2
2021/06/29 00:02:23;;;;;;;2.40;2.20;;;;;;;;;;5001375;28;20028;-62
2021/06/29 00:04:48;;;;;;;2.25;2.05;;;;;;;;;;5005513;28;20032;-61
2021/06/29 00:07:14;;;;;;;2.30;2.10;;;;;;;;;;5002857;28;20042;-61
2021/06/29 00:09:39;;;;;;;2.60;2.40;;;;;;;;;;4997984;28;20386;-62
2021/06/29 00:12:05;;;;;;;2.55;2.28;;;;;;;;;;5003221;28;20097;-61
2021/06/29 00:14:30;;;;;;;2.75;2.40;;;;;;;;;;5002685;28;20113;-61
2021/06/29 00:16:55;;;;;;;2.90;2.60;;;;;;;;;;5000051;28;20022;-61
2021/06/29 00:19:21;;;;;;;2.50;2.30;;;;;;;;;;5005786;28;20487;-61
2021/06/29 00:21:47;;;;;;;3.35;2.20;;;;;;;;;;5003698;28;20025;-60
2021/06/29 00:24:13;;;;;;;2.80;2.60;;;;;;;;;;4996731;28;20041;-61
2021/06/29 00:26:38;;;;;;;3.15;2.80;;;;;;;;;;5003038;28;20033;-62
2021/06/29 00:29:04;;;;;;;2.63;2.42;;;;;;;;;;5004729;28;20460;-62
2021/06/29 00:31:29;;;;;;;3.58;2.42;;;;;;;;;;4994494;28;20444;-62
2021/06/29 00:33:55;;;;;;;2.72;2.53;;;;;;;;;;5005778;28;20569;-62
2021/06/29 00:36:20;;;;;;;3.33;2.70;;;;;;;;;;5003646;28;20084;-62
2021/06/29 00:38:46;;;;;;;4.25;2.60;;;;;;;;;;5005728;28;20041;-61
2021/06/29 00:41:12;;;;;;;3.47;2.65;;;;;;;;;;5001660;28;20080;-62
2021/06/29 00:43:38;;;;;;;2.55;2.35;;;;;;;;;;4999482;28;20049;-61
2021/06/29 00:46:03;;;;;;;2.83;2.50;;;;;;;;;;5007673;28;20029;-62
2021/06/29 00:48:29;;;;;;;8.95;2.85;;;;;;;;;;5001246;28;20519;-62
2021/06/29 00:50:55;;;;;;;3.03;2.60;;;;;;;;;;5002675;28;20071;-61
2021/06/29 00:53:22;;;;;;;3.35;2.78;;;;;;;;;;5005522;28;20052;-61
2021/06/29 00:55:48;;;;;;;3.78;2.60;;;;;;;;;;5000099;28;20105;-61
2021/06/29 00:58:13;;;;;;;2.80;2.60;;;;;;;;;;5003397;28;20034;-61
2021/06/29 01:00:41;;;;;;;2.67;2.00;;;;;;;;;;5001996;28;20038;-61
2021/06/29 01:03:07;;;;;;;2.50;2.30;;;;;;;;;;5001094;28;20070;-61
2021/06/29 01:05:33;;;;;;;2.47;2.28;;;;;;;;;;5000628;28;20085;-61
2021/06/29 01:07:59;;;;;;;5.30;2.67;;;;;;;;;;5006548;28;20053;-62
2021/06/29 01:10:25;;;;;;;2.35;2.15;;;;;;;;;;5005938;28;20022;-62
2021/06/29 01:12:50;;;;;;;3.10;2.53;;;;;;;;;;5000104;28;20079;-61
2021/06/29 01:15:22;;;;;;;5.03;2.70;;;;;;;;;;5002430;28;20033;-62
2021/06/29 01:17:49;;;;;;;3.63;2.70;;;;;;;;;;5002263;28;20449;-62
2021/06/29 01:20:18;;;;;;;2.85;2.45;;;;;;;;;;5000304;28;20420;-62
2021/06/29 01:22:44;;;;;;;2.65;2.33;;;;;;;;;;5006571;28;20050;-62
2021/06/29 01:25:11;;;;;;;2.38;2.15;;;;;;;;;;5002482;28;20072;-62
2021/06/29 01:32:29;;;;;;;2.58;2.38;;;;;;;;;;4996795;28;20058;-62
2021/06/29 01:34:54;;;;;;;2.90;2.60;;;;;;;;;;5007286;28;20092;-62
2021/06/29 01:37:21;;;;;;;2.80;2.47;;;;;;;;;;5001740;28;20029;-62
2021/06/29 01:40:04;;;;;;;2.53;2.33;;;;;;;;;;5002443;28;20034;-62
2021/06/29 01:42:31;;;;;;;3.35;3.03;;;;;;;;;;5005311;28;20029;-62
2021/06/29 01:44:57;;;;;;;3.42;2.72;;;;;;;;;;5005670;28;20357;-62
2021/06/29 01:47:28;;;;;;;4.47;2.70;;;;;;;;;;5000877;28;20065;-62
2021/06/29 01:49:55;;;;;;;3.13;2.90;;;;;;;;;;5003662;28;20068;-62
2021/06/29 01:52:20;;;;;;;4.60;3.85;;;;;;;;;;5006155;28;20042;-62
2021/06/29 01:54:46;;;;;;;3.83;2.65;;;;;;;;;;5007246;28;20510;-62
2021/06/29 01:57:17;;;;;;;4.95;3.20;;;;;;;;;;5001965;28;20497;-63
2021/06/29 01:59:49;;;;;;;3.85;3.00;;;;;;;;;;5000945;28;20029;-62
2021/06/29 02:02:14;;;;;;;4.00;3.10;;;;;;;;;;5005647;28;20069;-61
2021/06/29 02:04:40;;;;;;;4.78;3.08;;;;;;;;;;5002867;28;20022;-62
2021/06/29 02:07:06;;;;;;;3.97;2.92;;;;;;;;;;4999715;28;20025;-61
2021/06/29 02:09:31;;;;;;;4.07;2.78;;;;;;;;;;5003332;28;20036;-63
2021/06/29 02:11:57;;;;;;;3.92;3.15;;;;;;;;;;5001715;28;20030;-63
2021/06/29 02:14:22;;;;;;;3.40;3.10;;;;;;;;;;4996904;28;20104;-63
2021/06/29 02:16:48;;;;;;;2.85;2.65;;;;;;;;;;4998319;28;20401;-63
2021/06/29 02:19:13;;;;;;;3.08;2.88;;;;;;;;;;4999047;28;20030;-63
2021/06/29 02:21:38;;;;;;;3.35;2.80;;;;;;;;;;5001133;28;20049;-63
2021/06/29 02:24:05;;;;;;;3.65;2.90;;;;;;;;;;4997865;28;20411;-63
2021/06/29 02:26:30;;;;;;;4.85;3.10;;;;;;;;;;4998723;28;20087;-63
2021/06/29 02:28:55;;;;;;;4.43;2.92;;;;;;;;;;5006801;28;20490;-63
2021/06/29 02:31:21;;;;;;;3.33;3.03;;;;;;;;;;4997129;28;20038;-63
2021/06/29 02:33:46;;;;;;;3.28;2.55;;;;;;;;;;5005897;28;20021;-63
2021/06/29 02:36:12;;;;;;;3.00;2.80;;;;;;;;;;5007470;28;20678;-63
2021/06/29 02:38:38;;;;;;;3.38;2.85;;;;;;;;;;4998219;28;20100;-63
2021/06/29 02:41:04;;;;;;;3.38;2.60;;;;;;;;;;4999632;28;20562;-63
2021/06/29 02:43:30;;;;;;;3.67;3.00;;;;;;;;;;5000396;28;20029;-63
2021/06/29 02:45:55;;;;;;;3.22;3.00;;;;;;;;;;5005018;28;20406;-62
2021/06/29 02:48:21;;;;;;;2.92;2.72;;;;;;;;;;5004213;28;20030;-62
2021/06/29 02:50:46;;;;;;;5.00;2.67;;;;;;;;;;5001211;28;20035;-62
2021/06/29 02:53:12;;;;;;;3.47;3.17;;;;;;;;;;4998958;28;20023;-62
2021/06/29 02:55:37;;;;;;;3.40;3.10;;;;;;;;;;5003379;28;20345;-62
2021/06/29 02:58:03;;;;;;;5.28;3.08;;;;;;;;;;5006552;28;20071;-62
2021/06/29 03:00:28;;;;;;;4.57;3.08;;;;;;;;;;4999742;28;20024;-62
2021/06/29 03:02:53;;;;;;;2.92;2.72;;;;;;;;;;5005868;28;20193;-62
2021/06/29 03:05:19;;;;;;;3.55;3.17;;;;;;;;;;4998236;28;20493;-62
2021/06/29 03:07:44;;;;;;;3.95;2.92;;;;;;;;;;5004118;28;20083;-62
2021/06/29 03:10:10;;;;;;;3.15;2.85;;;;;;;;;;4998871;28;20029;-62
2021/06/29 03:12:36;;;;;;;2.72;2.50;;;;;;;;;;5001133;28;20072;-62
2021/06/29 03:15:03;;;;;;;3.05;2.83;;;;;;;;;;5004019;28;20029;-63
2021/06/29 03:17:29;;;;;;;3.00;2.80;;;;;;;;;;5003257;28;20026;-63
2021/06/29 03:19:55;;;;;;;2.92;2.70;;;;;;;;;;4999045;28;20033;-62
2021/06/29 03:22:21;;;;;;;3.08;2.88;;;;;;;;;;4991659;28;20069;-62
2021/06/29 03:24:48;;;;;;;3.03;2.83;;;;;;;;;;5002052;28;20022;-62
2021/06/29 03:27:13;;;;;;;3.75;3.20;;;;;;;;;;5002335;28;20027;-62
2021/06/29 03:29:39;;;;;;;3.45;2.92;;;;;;;;;;4997099;28;20026;-62
2021/06/29 03:32:06;;;;;;;3.13;2.80;;;;;;;;;;5005146;28;20197;-62
2021/06/29 03:34:31;;;;;;;2.70;2.50;;;;;;;;;;5002100;28;20030;-62
2021/06/29 03:36:58;;;;;;;2.88;2.33;;;;;;;;;;5003310;28;20026;-62
2021/06/29 03:39:23;;;;;;;3.22;2.38;;;;;;;;;;5000365;28;20040;-62
2021/06/29 03:41:48;;;;;;;2.42;2.22;;;;;;;;;;5007319;28;20029;-62
2021/06/29 03:44:14;;;;;;;2.88;2.42;;;;;;;;;;5009936;28;20113;-62
2021/06/29 03:46:39;;;;;;;2.55;2.35;;;;;;;;;;5003383;28;20026;-62
2021/06/29 03:49:05;;;;;;;2.40;2.20;;;;;;;;;;5004355;28;20558;-62
2021/06/29 03:51:31;;;;;;;2.33;2.13;;;;;;;;;;5000943;28;20025;-62
2021/06/29 03:53:56;;;;;;;3.92;2.90;;;;;;;;;;5004361;28;20030;-62
2021/06/29 03:56:28;;;;;;;2.25;2.05;;;;;;;;;;5002542;28;20113;-62
2021/06/29 03:58:55;;;;;;;5.00;2.15;;;;;;;;;;4999362;28;20058;-61
2021/06/29 04:01:20;;;;;;;2.45;2.25;;;;;;;;;;5006618;28;20109;-62
2021/06/29 04:03:46;;;;;;;2.30;2.10;;;;;;;;;;5002029;28;20109;-62
2021/06/29 04:06:12;;;;;;;2.65;2.45;;;;;;;;;;5004510;28;20101;-61
2021/06/29 04:08:37;;;;;;;2.42;2.22;;;;;;;;;;5006069;28;20112;-61
2021/06/29 04:11:02;;;;;;;2.45;2.25;;;;;;;;;;5002121;28;20057;-61
2021/06/29 04:13:28;;;;;;;3.90;2.40;;;;;;;;;;5001466;28;20056;-61
2021/06/29 04:15:53;;;;;;;3.50;2.80;;;;;;;;;;5003307;28;20142;-62
2021/06/29 04:18:19;;;;;;;3.05;2.17;;;;;;;;;;5004945;28;20037;-61
2021/06/29 04:20:45;;;;;;;4.35;2.13;;;;;;;;;;4994327;28;20038;-61
2021/06/29 04:23:11;;;;;;;2.30;2.10;;;;;;;;;;5005446;28;20025;-61
2021/06/29 04:25:36;;;;;;;2.10;2.00;;;;;;;;;;4999815;28;20030;-63
2021/06/29 04:28:02;;;;;;;2.28;2.08;;;;;;;;;;5000290;28;20030;-61
2021/06/29 04:30:27;;;;;;;4.38;2.30;;;;;;;;;;5008702;28;20522;-63
2021/06/29 04:32:53;;;;;;;2.35;2.15;;;;;;;;;;5005485;28;20518;-62
2021/06/29 04:35:18;;;;;;;2.10;1.90;;;;;;;;;;5006662;28;20038;-60
2021/06/29 04:37:44;;;;;;;1.98;1.88;;;;;;;;;;4999494;28;20070;-61
2021/06/29 04:40:10;;;;;;;2.17;1.73;;;;;;;;;;5005368;28;20033;-62
2021/06/29 04:42:36;;;;;;;2.70;2.10;;;;;;;;;;5004947;28;20439;-62
2021/06/29 04:45:02;;;;;;;2.25;2.05;;;;;;;;;;5008292;28;20026;-62
2021/06/29 04:47:28;;;;;;;2.40;2.20;;;;;;;;;;4998846;28;20083;-62
2021/06/29 04:49:55;;;;;;;2.15;2.00;;;;;;;;;;5005952;28;20029;-62
2021/06/29 04:52:22;;;;;;;2.20;2.00;;;;;;;;;;5009209;28;20488;-62
2021/06/29 04:54:47;;;;;;;3.17;2.00;;;;;;;;;;5010376;28;20057;-62
2021/06/29 04:57:12;;;;;;;2.80;2.10;;;;;;;;;;5005952;28;20484;-61
2021/06/29 04:59:38;;;;;;;2.75;1.73;;;;;;;;;;5006016;28;20081;-62
2021/06/29 05:02:03;;;;;;;4.28;2.17;;;;;;;;;;5003794;28;20026;-61
2021/06/29 05:04:29;;;;;;;4.53;2.55;;;;;;;;;;4997311;28;20033;-61
2021/06/29 05:06:54;;;;;;;2.92;2.35;;;;;;;;;;5002112;28;20046;-61
2021/06/29 05:09:20;;;;;;;3.28;2.30;;;;;;;;;;5006148;28;20040;-61
2021/06/29 05:11:45;;;;;;;2.58;1.80;;;;;;;;;;4998114;28;20025;-62
2021/06/29 05:14:10;;;;;;;3.00;1.90;;;;;;;;;;5005806;28;20040;-61
2021/06/29 05:16:36;;;;;;;4.32;1.90;;;;;;;;;;5002728;28;20030;-61
2021/06/29 05:19:01;;;;;;;1.88;1.70;;;;;;;;;;4994720;28;20029;-61
2021/06/29 05:21:27;;;;;;;2.97;2.33;;;;;;;;;;4996184;28;20058;-61
2021/06/29 05:23:52;;;;;;;3.55;2.72;;;;;;;;;;5008855;28;20052;-61
2021/06/29 05:26:18;;;;;;;4.50;2.65;;;;;;;;;;5007042;28;20026;-61
2021/06/29 05:28:44;;;;;;;2.15;1.88;;;;;;;;;;5004579;28;20591;-61
2021/06/29 05:31:09;;;;;;;3.22;2.00;;;;;;;;;;4999930;28;20120;-61
2021/06/29 05:33:35;;;;;;;1.77;1.67;;;;;;;;;;5000961;28;20036;-61
2021/06/29 05:36:00;;;;;;;2.42;2.10;;;;;;;;;;5012040;28;20028;-62
2021/06/29 05:38:26;;;;;;;2.40;2.17;;;;;;;;;;5001222;28;20026;-63
2021/06/29 05:40:51;;;;;;;2.38;2.20;;;;;;;;;;5005127;28;20033;-63
2021/06/29 05:43:16;;;;;;;2.67;2.10;;;;;;;;;;4999323;28;20101;-63
2021/06/29 05:45:42;;;;;;;2.58;2.38;;;;;;;;;;4998336;28;20027;-63
2021/06/29 05:48:07;;;;;;;2.92;2.35;;;;;;;;;;5002712;28;20502;-60
2021/06/29 05:50:33;;;;;;;3.10;2.80;;;;;;;;;;5003098;28;20062;-63
2021/06/29 05:52:58;;;;;;;2.30;2.10;;;;;;;;;;5000902;28;20038;-63
2021/06/29 05:55:24;;;;;;;3.90;2.60;;;;;;;;;;5005250;28;20072;-63
2021/06/29 05:57:49;;;;;;;2.20;2.00;;;;;;;;;;5003631;28;20104;-63
2021/06/29 06:00:17;;;;;;;4.22;2.50;;;;;;;;;;4998914;28;20053;-63
2021/06/29 06:02:42;;;;;;;3.25;2.30;;;;;;;;;;4996321;28;20459;-63
2021/06/29 06:05:09;;;;;;;3.53;3.22;;;;;;;;;;5005737;28;20133;-63
2021/06/29 06:07:35;;;;;;;6.43;4.10;;;;;;;;;;5002644;28;20447;-63
2021/06/29 06:10:02;;;;;;;4.07;3.05;;;;;;;;;;4998419;28;20361;-63
2021/06/29 06:12:27;;;;;;;3.00;2.80;;;;;;;;;;5001048;28;20459;-63
2021/06/29 06:14:55;;;;;;;3.25;2.30;;;;;;;;;;5004811;28;20070;-63
2021/06/29 06:17:20;;;;;;;2.58;2.38;;;;;;;;;;4997746;28;20060;-63
2021/06/29 06:19:46;;;;;;;2.85;1.92;;;;;;;;;;4996533;28;20022;-63
2021/06/29 06:22:12;;;;;;;2.00;1.85;;;;;;;;;;5000540;28;20034;-63
2021/06/29 06:24:37;;;;;;;2.78;2.00;;;;;;;;;;5002761;28;20392;-63
2021/06/29 06:27:03;;;;;;;2.38;2.17;;;;;;;;;;4996958;28;20045;-63
2021/06/29 06:29:28;;;;;;;2.85;2.30;;;;;;;;;;5004548;28;20061;-63
2021/06/29 06:31:54;;;;;;;2.80;2.35;;;;;;;;;;5001531;28;20025;-63
2021/06/29 06:34:19;;;;;;;2.80;2.30;;;;;;;;;;4999272;28;20052;-63
2021/06/29 06:36:47;;;;;;;4.63;3.72;;;;;;;;;;4999169;28;20072;-63
2021/06/29 06:39:12;;;;;;;12.07;7.22;;;;;;;;;;5004754;28;20340;-63
2021/06/29 06:41:38;;;;;;;4.95;3.60;;;;;;;;;;5004976;28;20515;-63
2021/06/29 06:44:03;;;;;;;2.60;2.40;;;;;;;;;;4998590;28;20037;-63
2021/06/29 06:46:29;;;;;;;2.22;2.13;;;;;;;;;;5001127;28;20062;-63
2021/06/29 06:48:54;;;;;;;2.72;2.50;;;;;;;;;;5000575;28;20100;-63
2021/06/29 06:51:20;;;;;;;3.05;2.65;;;;;;;;;;4998535;28;20117;-63
2021/06/29 06:53:46;;;;;;;2.78;2.47;;;;;;;;;;4996774;28;20141;-63
2021/06/29 06:56:14;;;;;;;4.32;2.70;;;;;;;;;;5002473;28;20026;-63
2021/06/29 06:58:41;;;;;;;2.80;2.50;;;;;;;;;;4999151;28;20049;-63
2021/06/29 07:01:08;;;;;;;2.40;2.20;;;;;;;;;;5004029;28;20396;-63
2021/06/29 07:03:33;;;;;;;2.47;2.17;;;;;;;;;;5005665;28;20091;-63
2021/06/29 07:05:59;;;;;;;2.28;2.08;;;;;;;;;;5006359;28;20038;-63
2021/06/29 07:08:24;;;;;;;3.10;2.55;;;;;;;;;;5008128;28;20034;-63
2021/06/29 07:10:53;;;;;;;4.30;3.90;;;;;;;;;;5006664;28;20408;-63
2021/06/29 07:13:18;;;;;;;2.43;2.20;;;;;;;;;;4999040;28;20030;-63
2021/06/29 07:15:44;;;;;;;4.32;2.80;;;;;;;;;;5000432;28;20087;-63
2021/06/29 07:18:14;;;;;;;2.78;2.47;;;;;;;;;;5001014;28;20021;-63
2021/06/29 07:20:41;;;;;;;2.22;2.13;;;;;;;;;;5004929;28;20092;-62
2021/06/29 07:23:07;;;;;;;2.58;2.10;;;;;;;;;;5004708;28;20478;-62
2021/06/29 07:25:32;;;;;;;3.20;2.47;;;;;;;;;;5002366;28;20030;-63
2021/06/29 07:27:58;;;;;;;5.07;2.45;;;;;;;;;;5007833;28;20105;-62
2021/06/29 07:30:23;;;;;;;2.65;2.45;;;;;;;;;;5004035;28;20470;-62
2021/06/29 07:32:53;;;;;;;2.38;2.10;;;;;;;;;;5003033;28;20117;-62
2021/06/29 07:35:19;;;;;;;2.00;1.90;;;;;;;;;;5006946;28;20034;-62
2021/06/29 07:37:44;;;;;;;1.90;1.80;;;;;;;;;;5000245;28;20517;-64
2021/06/29 07:40:10;;;;;;;2.35;1.60;;;;;;;;;;5003314;28;20109;-64
2021/06/29 07:42:36;;;;;;;2.00;1.90;;;;;;;;;;5009637;28;20029;-63
2021/06/29 07:45:04;;;;;;;2.42;1.92;;;;;;;;;;4998760;28;20033;-63
2021/06/29 07:47:29;;;;;;;3.08;1.92;;;;;;;;;;5008217;28;20030;-63
2021/06/29 07:49:55;;;;;;;2.80;2.00;;;;;;;;;;5006702;28;20044;-63
2021/06/29 07:52:20;;;;;;;2.63;2.28;;;;;;;;;;4995633;28;20053;-63
2021/06/29 07:54:46;;;;;;;2.45;2.00;;;;;;;;;;5006986;28;20048;-63
2021/06/29 07:57:11;;;;;;;2.10;1.92;;;;;;;;;;5009364;28;20174;-62
2021/06/29 07:59:36;;;;;;;1.77;1.65;;;;;;;;;;5002917;28;20093;-63
2021/06/29 08:02:02;;;;;;;2.20;2.10;;;;;;;;;;5001769;28;20022;-63
2021/06/29 08:04:28;;;;;;;1.98;1.88;;;;;;;;;;5005041;28;20026;-63
2021/06/29 08:06:53;;;;;;;2.58;1.98;;;;;;;;;;5006315;28;20048;-63
2021/06/29 08:09:18;;;;;;;2.58;1.98;;;;;;;;;;5000937;28;20084;-63
2021/06/29 08:11:44;;;;;;;1.85;1.75;;;;;;;;;;5006668;28;20029;-63
2021/06/29 08:14:09;;;;;;;3.53;1.75;;;;;;;;;;5004132;28;20476;-62
2021/06/29 08:16:35;;;;;;;1.70;1.60;;;;;;;;;;4997254;28;20105;-62
2021/06/29 08:19:00;;;;;;;2.47;1.70;;;;;;;;;;5003721;28;20045;-62
2021/06/29 08:21:26;;;;;;;2.08;1.73;;;;;;;;;;5005187;28;20064;-63
2021/06/29 08:23:51;;;;;;;1.92;1.80;;;;;;;;;;5008248;28;20548;-63
2021/06/29 08:26:17;;;;;;;1.95;1.80;;;;;;;;;;5000712;28;20117;-62
2021/06/29 08:28:42;;;;;;;2.03;1.70;;;;;;;;;;5010459;28;20423;-62
2021/06/29 08:31:08;;;;;;;1.90;1.80;;;;;;;;;;5002590;28;20072;-63
2021/06/29 08:33:34;;;;;;;1.77;1.50;;;;;;;;;;5002047;28;20041;-63
2021/06/29 08:35:59;;;;;;;1.67;1.50;;;;;;;;;;5004460;28;20022;-63
2021/06/29 08:38:25;;;;;;;1.80;1.70;;;;;;;;;;5002048;28;20080;-63
2021/06/29 08:40:51;;;;;;;1.70;1.60;;;;;;;;;;5001231;28;20106;-63
2021/06/29 08:43:17;;;;;;;1.77;1.60;;;;;;;;;;4999218;28;20060;-63
2021/06/29 08:45:44;;;;;;;2.03;1.55;;;;;;;;;;5003108;28;20396;-63
2021/06/29 08:48:10;;;;;;;1.90;1.80;;;;;;;;;;5004346;28;20409;-62
2021/06/29 08:50:39;;;;;;;2.60;1.67;;;;;;;;;;5005494;28;20471;-63
2021/06/29 08:53:08;;;;;;;3.10;1.77;;;;;;;;;;5002156;28;20049;-63
2021/06/29 08:55:43;;;;;;;1.92;1.75;;;;;;;;;;5006546;28;20108;-63
2021/06/29 08:58:09;;;;;;;1.83;1.70;;;;;;;;;;5001917;28;20021;-63
2021/06/29 09:00:37;;;;;;;2.10;1.80;;;;;;;;;;5006035;28;20056;-63
2021/06/29 09:03:04;;;;;;;1.52;1.40;;;;;;;;;;4998703;28;20060;-63
2021/06/29 09:05:30;;;;;;;1.42;1.33;;;;;;;;;;5007471;28;20141;-63
2021/06/29 09:08:00;;;;;;;1.55;1.30;;;;;;;;;;5002219;28;20209;-63
2021/06/29 09:10:25;;;;;;;3.45;1.48;;;;;;;;;;5007730;28;20029;-63
2021/06/29 09:12:54;;;;;;;4.50;1.42;;;;;;;;;;5011527;28;20052;-63
2021/06/29 09:15:43;;;;;;;2.10;1.50;;;;;;;;;;5017826;28;20036;-63
2021/06/29 09:18:11;;;;;;;1.73;1.33;;;;;;;;;;4999320;28;20496;-63
2021/06/29 09:20:57;;;;;;;1.38;1.27;;;;;;;;;;5007992;28;20038;-63
2021/06/29 09:23:35;;;;;;;1.50;1.33;;;;;;;;;;5004503;28;20032;-63
2021/06/29 09:26:11;;;;;;;1.95;1.50;;;;;;;;;;5006544;28;20056;-63
2021/06/29 09:28:39;;;;;;;3.17;1.65;;;;;;;;;;5006453;28;20088;-63
2021/06/29 09:31:17;;;;;;;2.70;1.70;;;;;;;;;;5004422;28;20045;-63
2021/06/29 09:33:45;;;;;;;1.58;1.42;;;;;;;;;;5006657;28;20040;-63
2021/06/29 09:36:17;;;;;;;1.55;1.45;;;;;;;;;;4998897;28;20037;-63
2021/06/29 09:38:45;;;;;;;1.50;1.40;;;;;;;;;;5004918;28;20096;-63
2021/06/29 09:41:23;;;;;;;1.60;1.50;;;;;;;;;;5001222;28;20449;-63
2021/06/29 09:43:51;;;;;;;2.28;1.73;;;;;;;;;;5000801;28;20025;-64
2021/06/29 09:46:19;;;;;;;1.70;1.60;;;;;;;;;;5005844;28;20030;-63
2021/06/29 09:48:47;;;;;;;2.55;1.90;;;;;;;;;;5002564;28;20435;-63
2021/06/29 09:51:14;;;;;;;2.22;1.70;;;;;;;;;;5000871;28;20033;-64
2021/06/29 09:53:42;;;;;;;1.75;1.60;;;;;;;;;;4997030;28;20034;-63
2021/06/29 09:56:19;;;;;;;2.03;1.40;;;;;;;;;;5006037;28;20061;-63
2021/06/29 09:58:50;;;;;;;1.60;1.50;;;;;;;;;;5014931;28;20425;-62
2021/06/29 10:01:18;;;;;;;1.40;1.23;;;;;;;;;;5004361;28;20045;-64
2021/06/29 10:03:44;;;;;;;1.52;1.42;;;;;;;;;;5003717;28;20030;-63
2021/06/29 10:06:19;;;;;;;1.77;1.60;;;;;;;;;;5016796;28;20026;-63
2021/06/29 10:08:46;;;;;;;1.70;1.40;;;;;;;;;;5004763;28;20033;-62
2021/06/29 10:11:14;;;;;;;1.95;1.42;;;;;;;;;;5002599;28;20038;-63
2021/06/29 10:13:49;;;;;;;1.80;1.52;;;;;;;;;;5003763;28;20030;-63
2021/06/29 10:16:18;;;;;;;2.85;1.60;;;;;;;;;;4995953;28;20014;-62
2021/06/29 10:18:49;;;;;;;1.60;1.50;;;;;;;;;;4999981;28;20034;-62
2021/06/29 10:21:25;;;;;;;2.83;1.60;;;;;;;;;;5000222;28;20116;-62
2021/06/29 10:23:55;;;;;;;1.70;1.60;;;;;;;;;;5000708;28;20036;-63
2021/06/29 10:26:22;;;;;;;3.05;1.90;;;;;;;;;;4999591;28;20046;-62
2021/06/29 10:28:49;;;;;;;1.83;1.73;;;;;;;;;;5005994;28;20026;-64
2021/06/29 10:31:20;;;;;;;4.50;2.10;;;;;;;;;;4995086;28;20026;-64
2021/06/29 10:33:47;;;;;;;1.90;1.80;;;;;;;;;;4996983;28;20083;-64
2021/06/29 10:36:13;;;;;;;2.17;1.85;;;;;;;;;;4997422;28;20026;-64
2021/06/29 10:38:39;;;;;;;1.80;1.70;;;;;;;;;;4999418;28;20026;-62
2021/06/29 10:41:05;;;;;;;1.92;1.80;;;;;;;;;;5004484;28;20361;-62
2021/06/29 10:43:35;;;;;;;2.10;1.90;;;;;;;;;;5005076;28;20123;-63
2021/06/29 10:46:01;;;;;;;2.83;1.70;;;;;;;;;;4996528;28;20031;-64
2021/06/29 10:48:28;;;;;;;2.97;1.92;;;;;;;;;;5005074;28;20034;-64
2021/06/29 10:50:55;;;;;;;3.65;2.15;;;;;;;;;;5001451;28;20029;-63
2021/06/29 10:53:46;;;;;;;2.55;1.88;;;;;;;;;;5000241;28;20179;-63
2021/06/29 10:56:17;;;;;;;4.60;1.90;;;;;;;;;;4999745;28;20030;-63
2021/06/29 10:58:45;;;;;;;4.07;2.00;;;;;;;;;;5003987;28;20428;-64
2021/06/29 11:01:23;;;;;;;2.67;1.70;;;;;;;;;;5000585;28;20030;-64
2021/06/29 11:03:53;;;;;;;1.85;1.70;;;;;;;;;;5002435;28;20099;-64
2021/06/29 11:06:41;;;;;;;2.88;1.58;;;;;;;;;;4996984;28;20041;-64
2021/06/29 11:09:07;;;;;;;2.63;1.80;;;;;;;;;;5004263;28;20024;-64
2021/06/29 11:11:33;;;;;;;2.17;1.65;;;;;;;;;;5001214;28;20034;-64
2021/06/29 11:13:58;;;;;;;3.38;2.10;;;;;;;;;;5004343;28;20125;-64
2021/06/29 11:16:53;;;;;;;4.18;1.98;;;;;;;;;;4997434;28;20466;-63
2021/06/29 11:19:20;;;;;;;2.40;2.20;;;;;;;;;;4997454;28;20034;-65
2021/06/29 11:21:45;;;;;;;3.72;3.35;;;;;;;;;;4999870;28;20075;-62
2021/06/29 11:24:36;;;;;;;2.53;2.30;;;;;;;;;;4998845;28;20103;-65
2021/06/29 11:27:02;;;;;;;3.33;2.40;;;;;;;;;;5002702;28;20161;-63
2021/06/29 11:29:39;;;;;;;4.60;2.85;;;;;;;;;;5006637;28;20601;-64
2021/06/29 11:32:31;;;;;;;4.00;3.63;;;;;;;;;;5003484;28;20026;-63
2021/06/29 11:35:35;;;;;;;6.38;5.47;;;;;;;;;;5001669;28;20512;-64
2021/06/29 11:38:08;;;;;;;4.45;2.72;;;;;;;;;;4999005;28;20405;-64
2021/06/29 11:40:34;;;;;;;5.88;4.28;;;;;;;;;;5002629;28;20407;-64
2021/06/29 11:43:12;;;;;;;4.00;2.97;;;;;;;;;;5000430;28;20029;-63
2021/06/29 11:45:38;;;;;;;4.25;2.85;;;;;;;;;;5002541;28;20520;-64
2021/06/29 11:48:04;;;;;;;4.13;3.00;;;;;;;;;;5000844;28;20042;-64
2021/06/29 11:50:40;;;;;;;3.53;3.20;;;;;;;;;;5009327;28;20030;-64
2021/06/29 11:53:21;;;;;;;2.60;2.40;;;;;;;;;;5006044;28;20055;-63
2021/06/29 11:55:46;;;;;;;4.88;2.90;;;;;;;;;;4995459;28;20212;-63
2021/06/29 11:58:12;;;;;;;2.97;2.78;;;;;;;;;;5001931;28;20208;-63
2021/06/29 12:00:38;;;;;;;2.95;2.65;;;;;;;;;;5018067;28;20038;-64
2021/06/29 12:03:19;;;;;;;3.97;3.65;;;;;;;;;;5002992;28;20032;-64
2021/06/29 12:05:46;;;;;;;3.88;2.20;;;;;;;;;;5003798;28;20049;-64
2021/06/29 12:08:13;;;;;;;2.67;2.47;;;;;;;;;;5006063;28;20022;-64
2021/06/29 12:10:41;;;;;;;2.92;2.63;;;;;;;;;;5002271;28;20032;-64
2021/06/29 12:13:08;;;;;;;2.47;2.27;;;;;;;;;;5010753;28;20025;-63
2021/06/29 12:15:33;;;;;;;3.42;2.00;;;;;;;;;;5009404;28;20030;-64
2021/06/29 12:18:08;;;;;;;4.07;2.60;;;;;;;;;;5002575;28;20061;-64
2021/06/29 12:20:34;;;;;;;5.75;5.25;;;;;;;;;;5000905;28;20034;-62
2021/06/29 12:23:02;;;;;;;4.20;3.90;;;;;;;;;;5002207;28;20397;-63
2021/06/29 12:25:28;;;;;;;3.20;1.80;;;;;;;;;;5001562;28;20034;-64
2021/06/29 12:28:03;;;;;;;2.55;2.38;;;;;;;;;;5003706;28;20355;-65
2021/06/29 12:30:35;;;;;;;3.55;2.30;;;;;;;;;;5005485;28;20036;-61
2021/06/29 12:33:12;;;;;;;2.60;2.40;;;;;;;;;;5006705;28;20082;-64
2021/06/29 12:35:39;;;;;;;2.33;2.13;;;;;;;;;;5009003;28;20041;-63
2021/06/29 12:38:08;;;;;;;2.75;2.50;;;;;;;;;;5008820;28;20034;-62
2021/06/29 12:40:35;;;;;;;4.18;3.88;;;;;;;;;;5004978;28;20029;-62
2021/06/29 12:43:17;;;;;;;2.28;2.08;;;;;;;;;;5010261;28;20034;-62
2021/06/29 12:45:43;;;;;;;3.35;2.28;;;;;;;;;;5008388;28;20100;-62
2021/06/29 12:48:09;;;;;;;4.70;3.00;;;;;;;;;;5009119;28;20029;-64
2021/06/29 12:50:36;;;;;;;3.67;3.35;;;;;;;;;;5007962;28;20094;-63
2021/06/29 12:53:03;;;;;;;2.70;2.45;;;;;;;;;;5000852;28;20496;-64
2021/06/29 12:55:30;;;;;;;2.75;2.47;;;;;;;;;;5004069;28;20061;-63
2021/06/29 12:58:01;;;;;;;3.88;1.90;;;;;;;;;;5000400;28;20257;-63
2021/06/29 13:00:27;;;;;;;2.20;1.48;;;;;;;;;;5009690;28;20048;-63
2021/06/29 13:02:53;;;;;;;5.32;1.40;;;;;;;;;;5000225;28;20492;-62
2021/06/29 13:05:23;;;;;;;2.92;1.30;;;;;;;;;;5006681;28;20113;-64
2021/06/29 13:07:49;;;;;;;8.48;3.17;;;;;;;;;;5004378;28;20410;-69
2021/06/29 13:10:16;;;;;;;4.40;1.02;;;;;;;;;;5004820;28;20460;-70
2021/06/29 13:12:42;;;;;;;2.25;0.90;;;;;;;;;;5017868;28;20633;-70
2021/06/29 13:15:10;;;;;;;3.20;1.90;;;;;;;;;;5002049;28;20037;-69
2021/06/29 13:17:55;;;;;;;3.35;1.52;;;;;;;;;;5008660;28;20029;-67
2021/06/29 13:20:23;;;;;;;0.80;0.80;;;;;;;;;;5001113;28;20034;-66
2021/06/29 13:22:53;;;;;;;1.00;0.65;;;;;;;;;;4999749;28;20026;-65
2021/06/29 13:25:36;;;;;;;1.60;0.80;;;;;;;;;;5000567;28;20037;-66
2021/06/29 13:28:12;;;;;;;2.55;0.90;;;;;;;;;;4994552;28;20030;-66
2021/06/29 13:30:39;;;;;;;0.50;0.50;;;;;;;;;;4997194;28;20090;-66
2021/06/29 13:33:07;;;;;;;2.60;0.80;;;;;;;;;;4997181;28;20220;-66
2021/06/29 13:35:32;;;;;;;1.75;0.80;;;;;;;;;;4998904;28;20460;-66
2021/06/29 13:37:59;;;;;;;1.58;0.70;;;;;;;;;;4998281;28;20034;-66
2021/06/29 13:40:31;;;;;;;0.68;0.68;;;;;;;;;;5003295;28;20018;-67
2021/06/29 13:43:17;;;;;;;4.82;1.20;;;;;;;;;;5000884;28;20026;-67
2021/06/29 13:45:47;;;;;;;0.82;0.80;;;;;;;;;;4999305;28;20079;-66
2021/06/29 13:48:13;;;;;;;0.88;0.80;;;;;;;;;;5003385;28;20516;-66
2021/06/29 13:50:45;;;;;;;0.85;0.75;;;;;;;;;;5000898;28;20045;-66
2021/06/29 13:53:13;;;;;;;2.05;0.70;;;;;;;;;;5004801;28;20547;-67
2021/06/29 13:55:50;;;;;;;1.23;0.88;;;;;;;;;;5004336;28;20412;-67
2021/06/29 13:58:16;;;;;;;0.80;0.80;;;;;;;;;;5002315;28;20141;-67
2021/06/29 14:00:43;;;;;;;2.35;0.82;;;;;;;;;;5003980;28;20053;-67
2021/06/29 14:03:11;;;;;;;1.00;0.90;;;;;;;;;;5009424;28;20030;-67
2021/06/29 14:05:42;;;;;;;1.75;1.05;;;;;;;;;;4999923;28;20050;-66
2021/06/29 14:08:39;;;;;;;1.38;1.08;;;;;;;;;;5002134;28;20030;-67
2021/06/29 14:11:06;;;;;;;0.95;0.80;;;;;;;;;;4996316;28;20040;-67
2021/06/29 14:13:39;;;;;;;0.70;0.70;;;;;;;;;;5018343;28;20464;-66
2021/06/29 14:16:06;;;;;;;1.42;0.98;;;;;;;;;;4998695;28;20509;-68
2021/06/29 14:18:33;;;;;;;1.67;0.80;;;;;;;;;;4998242;28;20121;-67
2021/06/29 14:21:04;;;;;;;1.55;0.82;;;;;;;;;;4999449;28;20025;-67
2021/06/29 14:23:30;;;;;;;0.80;0.80;;;;;;;;;;5000047;28;20049;-68
2021/06/29 14:25:58;;;;;;;2.08;0.70;;;;;;;;;;4999649;28;20033;-67
2021/06/29 14:28:24;;;;;;;1.10;1.00;;;;;;;;;;5002032;28;20044;-67
2021/06/29 14:30:52;;;;;;;1.17;0.90;;;;;;;;;;4999325;28;20033;-67
2021/06/29 14:33:19;;;;;;;0.90;0.90;;;;;;;;;;4998827;28;20041;-67
2021/06/29 14:35:44;;;;;;;1.48;0.80;;;;;;;;;;4996755;28;20026;-67
2021/06/29 14:38:12;;;;;;;1.42;0.80;;;;;;;;;;5004052;28;20037;-67
2021/06/29 14:40:40;;;;;;;1.08;0.80;;;;;;;;;;5006478;28;20050;-67
2021/06/29 14:43:08;;;;;;;1.40;0.80;;;;;;;;;;4999531;28;20048;-66
2021/06/29 14:45:35;;;;;;;1.08;0.90;;;;;;;;;;5002343;28;20037;-66
2021/06/29 14:48:01;;;;;;;1.15;1.05;;;;;;;;;;5000383;28;20065;-66
2021/06/29 14:50:26;;;;;;;1.55;1.00;;;;;;;;;;5009466;28;20038;-65
2021/06/29 14:52:52;;;;;;;1.30;1.08;;;;;;;;;;5003802;28;20088;-65